Time;durP1;ratioP1;P1;durP2;ratioP2;P2;SDS_P1;SDS_P2;PMS_P1;PMS_P2;Temp;Humidity;BMP_temperature;BMP_pressure;BME280_temperature;BME280_humidity;BME280_pressure;Samples;Min_cycle;Max_cycle;Signal;HPM_P1;HPM_P2
2021/05/03 00:00:09;;;;;;;7.93;5.68;;;5.90;91.90;;;;;;2087702;28;20024;-69
2021/05/03 00:01:09;;;;;;;10.27;5.70;;;5.90;91.90;;;;;;2087812;28;20025;-69
2021/05/03 00:02:10;;;;;;;9.50;6.00;;;5.80;91.80;;;;;;2088898;28;20060;-68
2021/05/03 00:03:11;;;;;;;8.30;5.72;;;5.80;91.80;;;;;;2089848;28;20025;-68
2021/05/03 00:04:11;;;;;;;6.43;5.57;;;5.80;91.90;;;;;;2089777;28;20017;-70
2021/05/03 00:05:24;;;;;;;8.45;5.88;;;5.80;91.90;;;;;;2089838;28;20495;-68
2021/05/03 00:06:24;;;;;;;8.20;5.97;;;5.80;92.00;;;;;;2080992;28;20028;-69
2021/05/03 00:07:25;;;;;;;9.38;6.15;;;5.70;92.10;;;;;;2080965;28;20738;-68
2021/05/03 00:08:26;;;;;;;9.25;6.00;;;5.70;92.30;;;;;;2089989;28;20553;-69
2021/05/03 00:09:27;;;;;;;8.82;5.88;;;5.70;92.30;;;;;;2089821;28;20109;-69
2021/05/03 00:10:27;;;;;;;9.13;6.07;;;5.70;92.40;;;;;;2090000;28;20048;-68
2021/05/03 00:11:28;;;;;;;8.43;6.22;;;5.70;92.60;;;;;;2089914;28;20020;-68
2021/05/03 00:12:28;;;;;;;10.55;6.25;;;5.70;92.50;;;;;;2089510;28;20580;-68
2021/05/03 00:13:29;;;;;;;10.18;5.70;;;5.70;92.60;;;;;;2089839;28;20028;-68
2021/05/03 00:14:30;;;;;;;9.00;6.00;;;5.70;92.70;;;;;;2089876;28;20049;-69
2021/05/03 00:15:31;;;;;;;9.20;6.35;;;5.60;92.70;;;;;;2089806;28;20029;-68
2021/05/03 00:16:32;;;;;;;7.78;6.30;;;5.60;92.90;;;;;;2089630;28;20024;-68
2021/05/03 00:17:33;;;;;;;9.77;6.40;;;5.60;93.10;;;;;;2089641;28;20040;-68
2021/05/03 00:18:33;;;;;;;10.90;6.60;;;5.70;93.30;;;;;;2089788;28;20047;-67
2021/05/03 00:19:34;;;;;;;8.68;6.43;;;5.70;93.20;;;;;;2089719;28;20381;-69
2021/05/03 00:20:35;;;;;;;13.60;6.43;;;5.70;93.10;;;;;;2088975;28;20021;-68
2021/05/03 00:21:36;;;;;;;10.15;6.35;;;5.70;93.10;;;;;;2089090;28;20031;-70
2021/05/03 00:22:37;;;;;;;9.43;6.45;;;5.60;93.00;;;;;;2088947;28;20033;-68
2021/05/03 00:23:37;;;;;;;8.40;6.40;;;5.70;93.00;;;;;;2089088;28;20107;-68
2021/05/03 00:24:38;;;;;;;11.68;6.80;;;5.70;92.90;;;;;;2089708;28;20108;-69
2021/05/03 00:25:39;;;;;;;8.32;6.43;;;5.70;93.00;;;;;;2089073;28;20131;-68
2021/05/03 00:26:40;;;;;;;11.00;6.70;;;5.70;93.10;;;;;;2089016;28;20107;-68
2021/05/03 00:27:40;;;;;;;9.18;6.40;;;5.70;92.90;;;;;;2087955;28;20492;-69
2021/05/03 00:28:41;;;;;;;8.65;6.55;;;5.70;92.90;;;;;;2088471;28;20025;-67
2021/05/03 00:29:42;;;;;;;8.85;6.38;;;5.70;92.90;;;;;;2089701;28;20703;-68
2021/05/03 00:30:42;;;;;;;9.27;6.40;;;5.70;92.80;;;;;;2089663;28;20087;-68
2021/05/03 00:31:43;;;;;;;11.05;7.00;;;5.70;92.90;;;;;;2089657;28;20029;-68
2021/05/03 00:32:44;;;;;;;8.35;6.60;;;5.70;92.70;;;;;;2089160;28;20108;-68
2021/05/03 00:33:45;;;;;;;11.93;7.00;;;5.70;92.80;;;;;;2089672;28;20063;-69
2021/05/03 00:34:46;;;;;;;11.55;6.70;;;5.70;92.80;;;;;;2089012;28;20557;-69
2021/05/03 00:35:46;;;;;;;9.80;6.50;;;5.70;92.80;;;;;;2089039;28;20029;-69
2021/05/03 00:36:47;;;;;;;10.65;6.88;;;5.70;92.90;;;;;;2097064;28;20040;-69
2021/05/03 00:37:48;;;;;;;10.45;6.85;;;5.70;92.90;;;;;;2089398;28;20067;-69
2021/05/03 00:38:48;;;;;;;9.27;6.80;;;5.70;92.90;;;;;;2089611;28;20465;-69
2021/05/03 00:39:49;;;;;;;9.65;6.75;;;5.70;92.90;;;;;;2089909;28;20017;-69
2021/05/03 00:40:50;;;;;;;8.45;6.90;;;5.70;92.80;;;;;;2097861;28;20017;-69
2021/05/03 00:41:50;;;;;;;9.75;7.10;;;5.70;92.70;;;;;;2081424;28;20026;-68
2021/05/03 00:42:51;;;;;;;12.43;6.85;;;5.70;92.70;;;;;;2089392;28;20041;-68
2021/05/03 00:43:52;;;;;;;9.30;6.70;;;5.70;92.80;;;;;;2088898;28;20028;-68
2021/05/03 00:44:52;;;;;;;7.85;6.40;;;5.70;92.70;;;;;;2088948;28;20056;-68
2021/05/03 00:45:53;;;;;;;8.57;6.55;;;5.70;92.80;;;;;;2089611;28;20025;-68
2021/05/03 00:46:57;;;;;;;9.95;6.38;;;5.70;92.90;;;;;;2080618;28;20029;-68
2021/05/03 00:47:58;;;;;;;9.60;6.75;;;5.60;92.90;;;;;;2081024;28;20112;-69
2021/05/03 00:48:58;;;;;;;8.45;6.68;;;5.60;93.00;;;;;;2089578;28;20029;-68
2021/05/03 00:49:59;;;;;;;8.20;6.55;;;5.60;93.00;;;;;;2088906;28;20120;-69
2021/05/03 00:51:00;;;;;;;9.35;6.63;;;5.50;93.10;;;;;;2088860;28;20041;-68
2021/05/03 00:52:00;;;;;;;7.15;5.90;;;5.50;93.30;;;;;;2090576;28;20086;-68
2021/05/03 00:53:01;;;;;;;7.00;5.95;;;5.50;93.50;;;;;;2096139;28;20036;-69
2021/05/03 00:54:02;;;;;;;7.57;6.22;;;5.50;93.60;;;;;;2089441;28;20052;-69
2021/05/03 00:55:04;;;;;;;7.32;6.40;;;5.40;93.80;;;;;;2088883;28;20512;-70
2021/05/03 00:56:05;;;;;;;7.93;6.53;;;5.50;93.90;;;;;;2088959;28;20036;-69
2021/05/03 00:57:07;;;;;;;9.35;6.60;;;5.40;94.10;;;;;;2089524;28;20112;-69
2021/05/03 00:58:08;;;;;;;8.15;6.43;;;5.40;94.60;;;;;;2086422;28;20532;-69
2021/05/03 00:59:09;;;;;;;8.60;6.50;;;5.40;94.40;;;;;;2089489;28;20036;-69
2021/05/03 01:00:13;;;;;;;7.20;6.20;;;5.40;94.50;;;;;;2089461;28;20059;-69
2021/05/03 01:01:14;;;;;;;9.00;6.70;;;5.30;94.60;;;;;;2089512;28;20028;-69
2021/05/03 01:02:15;;;;;;;10.10;7.03;;;5.30;94.70;;;;;;2088637;28;20464;-69
2021/05/03 01:03:16;;;;;;;9.10;7.10;;;5.30;94.80;;;;;;2076074;28;20022;-69
2021/05/03 01:04:16;;;;;;;9.93;6.68;;;5.30;95.00;;;;;;2088755;28;20468;-69
2021/05/03 01:05:19;;;;;;;8.77;6.85;;;5.20;95.10;;;;;;2094019;28;20056;-70
2021/05/03 01:06:20;;;;;;;9.55;7.00;;;5.20;95.10;;;;;;2089550;28;20545;-69
2021/05/03 01:07:21;;;;;;;7.57;6.63;;;5.20;95.20;;;;;;2088864;28;20021;-69
2021/05/03 01:08:21;;;;;;;9.23;6.70;;;5.20;95.30;;;;;;2088913;28;20024;-68
2021/05/03 01:09:22;;;;;;;8.05;6.68;;;5.20;95.30;;;;;;2088873;28;20220;-69
2021/05/03 01:10:24;;;;;;;8.82;6.35;;;5.20;95.40;;;;;;2089020;28;20032;-68
2021/05/03 01:11:24;;;;;;;9.05;7.13;;;5.20;95.50;;;;;;2089429;28;20024;-69
2021/05/03 01:12:25;;;;;;;10.48;7.10;;;5.20;95.50;;;;;;2089091;28;20021;-68
2021/05/03 01:13:27;;;;;;;7.68;6.78;;;5.20;95.60;;;;;;2089138;28;20029;-69
2021/05/03 01:14:27;;;;;;;7.80;6.40;;;5.20;95.60;;;;;;2089117;28;20108;-68
2021/05/03 01:15:28;;;;;;;9.18;6.75;;;5.20;95.60;;;;;;2089382;28;20040;-68
2021/05/03 01:16:29;;;;;;;8.15;6.68;;;5.30;95.60;;;;;;2089376;28;20079;-69
2021/05/03 01:17:34;;;;;;;8.93;6.70;;;5.30;95.60;;;;;;2089263;28;20566;-69
2021/05/03 01:18:36;;;;;;;8.98;6.72;;;5.30;95.60;;;;;;2089284;28;20036;-68
2021/05/03 01:19:37;;;;;;;10.10;6.60;;;5.40;95.50;;;;;;2089349;28;20029;-68
2021/05/03 01:20:39;;;;;;;10.93;6.90;;;5.40;95.50;;;;;;2089305;28;20023;-68
2021/05/03 01:21:39;;;;;;;8.65;6.65;;;5.50;95.40;;;;;;2088770;28;20377;-68
2021/05/03 01:22:41;;;;;;;9.35;6.30;;;5.50;95.40;;;;;;2088237;28;20043;-69
2021/05/03 01:23:41;;;;;;;8.15;6.57;;;5.60;95.20;;;;;;2089232;28;20056;-68
2021/05/03 01:24:43;;;;;;;9.00;6.50;;;5.60;95.00;;;;;;2089242;28;20029;-68
2021/05/03 01:25:43;;;;;;;8.48;6.95;;;5.60;95.00;;;;;;2089335;28;20033;-68
2021/05/03 01:26:45;;;;;;;10.77;7.05;;;5.60;94.80;;;;;;2089266;28;20033;-68
2021/05/03 01:27:45;;;;;;;8.57;7.00;;;5.70;94.70;;;;;;2086325;28;20048;-68
2021/05/03 01:28:46;;;;;;;9.27;6.68;;;5.70;94.60;;;;;;2088100;28;20036;-68
2021/05/03 01:29:47;;;;;;;9.02;7.25;;;5.70;94.60;;;;;;2089185;28;20135;-68
2021/05/03 01:30:49;;;;;;;8.80;6.90;;;5.80;94.60;;;;;;2089144;28;20481;-68
2021/05/03 01:31:52;;;;;;;9.27;6.97;;;5.80;94.20;;;;;;2089218;28;20044;-68
2021/05/03 01:32:52;;;;;;;8.25;6.75;;;5.80;94.10;;;;;;2080768;28;20136;-68
2021/05/03 01:33:53;;;;;;;9.43;7.00;;;5.80;94.00;;;;;;2089216;28;20400;-69
2021/05/03 01:34:53;;;;;;;9.63;6.95;;;5.80;93.50;;;;;;2089331;28;20032;-68
2021/05/03 01:35:54;;;;;;;9.55;7.30;;;5.80;93.00;;;;;;2089080;28;20116;-69
2021/05/03 01:36:55;;;;;;;9.63;6.95;;;5.90;92.80;;;;;;2089057;28;20017;-69
2021/05/03 01:37:57;;;;;;;10.00;7.07;;;5.80;92.60;;;;;;2089053;28;20013;-68
2021/05/03 01:38:57;;;;;;;10.75;7.15;;;5.90;92.50;;;;;;2089107;28;20051;-68
2021/05/03 01:39:58;;;;;;;9.50;6.70;;;5.90;92.60;;;;;;2089064;28;20082;-69
2021/05/03 01:40:59;;;;;;;9.10;6.78;;;5.90;92.70;;;;;;2089073;28;20053;-68
2021/05/03 01:42:00;;;;;;;9.32;6.45;;;5.90;92.60;;;;;;2088830;28;20029;-69
2021/05/03 01:43:23;;;;;;;10.30;6.72;;;5.90;92.60;;;;;;2089177;28;20492;-68
2021/05/03 01:44:27;;;;;;;8.63;6.78;;;5.90;92.50;;;;;;2089091;28;20021;-68
2021/05/03 01:45:28;;;;;;;9.90;6.93;;;5.90;92.50;;;;;;2089037;28;20017;-68
2021/05/03 01:46:31;;;;;;;9.70;6.53;;;5.80;92.50;;;;;;2089107;28;20049;-68
2021/05/03 01:47:32;;;;;;;8.15;6.70;;;5.90;92.50;;;;;;2088959;28;20013;-69
2021/05/03 01:48:34;;;;;;;11.68;7.00;;;5.80;92.30;;;;;;2088389;28;20104;-68
2021/05/03 01:49:35;;;;;;;8.52;6.68;;;5.80;92.30;;;;;;2088456;28;20518;-68
2021/05/03 01:50:37;;;;;;;10.50;6.50;;;5.80;92.40;;;;;;2089076;28;20017;-68
2021/05/03 01:51:39;;;;;;;11.25;7.22;;;5.80;92.60;;;;;;2088974;28;20029;-68
2021/05/03 01:52:41;;;;;;;8.55;6.70;;;5.80;92.50;;;;;;2088560;28;20124;-69
2021/05/03 01:53:41;;;;;;;8.65;6.45;;;5.80;92.50;;;;;;2089049;28;20040;-69
2021/05/03 01:54:42;;;;;;;10.35;7.03;;;5.80;92.60;;;;;;2088931;28;20056;-68
2021/05/03 01:55:45;;;;;;;9.45;7.10;;;5.80;92.40;;;;;;2088953;28;20029;-68
2021/05/03 01:56:46;;;;;;;10.55;6.40;;;5.80;92.30;;;;;;2088912;28;20025;-69
2021/05/03 01:57:47;;;;;;;11.75;6.90;;;5.90;92.10;;;;;;2086455;28;20412;-68
2021/05/03 01:58:48;;;;;;;11.68;7.07;;;5.90;92.30;;;;;;2088594;28;20021;-69
2021/05/03 01:59:52;;;;;;;8.07;6.40;;;5.90;92.30;;;;;;2088311;28;20091;-69
2021/05/03 02:00:56;;;;;;;10.52;6.72;;;5.90;92.20;;;;;;2088247;28;20074;-68
2021/05/03 02:01:56;;;;;;;8.65;6.30;;;5.90;92.10;;;;;;2088592;28;20102;-68
2021/05/03 02:02:57;;;;;;;9.00;6.20;;;5.90;91.90;;;;;;2088917;28;20455;-68
2021/05/03 02:03:58;;;;;;;9.30;6.30;;;5.90;91.90;;;;;;2088911;28;20025;-69
2021/05/03 02:04:58;;;;;;;8.93;6.00;;;6.00;91.90;;;;;;2090014;28;20428;-67
2021/05/03 02:05:59;;;;;;;8.32;6.00;;;6.00;91.80;;;;;;2095093;28;20110;-68
2021/05/03 02:07:00;;;;;;;8.52;6.40;;;6.00;91.90;;;;;;2088195;28;20037;-68
2021/05/03 02:08:04;;;;;;;7.03;5.88;;;6.00;91.80;;;;;;2088855;28;20052;-69
2021/05/03 02:09:11;;;;;;;9.18;6.18;;;6.00;91.80;;;;;;2088895;28;20036;-69
2021/05/03 02:10:13;;;;;;;8.20;6.03;;;6.10;91.50;;;;;;2088930;28;20496;-67
2021/05/03 02:11:13;;;;;;;7.18;6.30;;;6.10;91.50;;;;;;2088786;28;20028;-68
2021/05/03 02:12:14;;;;;;;9.75;6.40;;;6.10;91.50;;;;;;2087870;28;20580;-69
2021/05/03 02:13:15;;;;;;;8.70;6.10;;;6.10;91.40;;;;;;2088158;28;20070;-68
2021/05/03 02:14:15;;;;;;;8.70;5.82;;;6.10;91.40;;;;;;2088742;28;20020;-67
2021/05/03 02:15:16;;;;;;;8.07;6.07;;;6.10;91.40;;;;;;2088704;28;20400;-68
2021/05/03 02:16:17;;;;;;;8.07;6.25;;;6.20;91.30;;;;;;2088737;28;20057;-69
2021/05/03 02:17:17;;;;;;;9.23;5.90;;;6.20;91.40;;;;;;2088731;28;20549;-69
2021/05/03 02:18:18;;;;;;;7.32;5.60;;;6.20;91.40;;;;;;2088760;28;20096;-69
2021/05/03 02:19:19;;;;;;;7.30;5.53;;;6.20;91.30;;;;;;2088879;28;20032;-69
2021/05/03 02:20:20;;;;;;;11.02;6.28;;;6.20;91.30;;;;;;2088966;28;20032;-69
2021/05/03 02:21:21;;;;;;;8.10;6.35;;;6.20;91.10;;;;;;2089015;28;20488;-69
2021/05/03 02:22:21;;;;;;;8.43;6.38;;;6.20;90.90;;;;;;2088662;28;20043;-69
2021/05/03 02:23:22;;;;;;;8.13;5.95;;;6.20;91.00;;;;;;2088869;28;20021;-70
2021/05/03 02:24:22;;;;;;;7.25;5.70;;;6.20;91.10;;;;;;2088996;28;20488;-69
2021/05/03 02:25:23;;;;;;;6.65;5.50;;;6.20;91.10;;;;;;2088415;28;20032;-69
2021/05/03 02:26:23;;;;;;;9.63;6.25;;;6.20;91.10;;;;;;2088694;28;20017;-69
2021/05/03 02:27:24;;;;;;;7.75;5.82;;;6.20;90.90;;;;;;2088776;28;20024;-69
2021/05/03 02:28:25;;;;;;;8.35;6.10;;;6.20;90.90;;;;;;2086152;28;20112;-69
2021/05/03 02:29:25;;;;;;;9.82;6.47;;;6.20;91.00;;;;;;2089003;28;20021;-69
2021/05/03 02:30:28;;;;;;;8.07;6.25;;;6.20;90.80;;;;;;2088927;28;20031;-70
2021/05/03 02:31:28;;;;;;;8.02;6.32;;;6.20;90.90;;;;;;2089003;28;20033;-68
2021/05/03 02:32:29;;;;;;;9.43;6.63;;;6.20;91.00;;;;;;2088544;28;20046;-68
2021/05/03 02:33:30;;;;;;;11.02;6.35;;;6.20;91.00;;;;;;2088893;28;20519;-69
2021/05/03 02:34:30;;;;;;;8.10;6.43;;;6.20;91.20;;;;;;2088412;28;20024;-69
2021/05/03 02:35:33;;;;;;;10.68;6.38;;;6.20;90.80;;;;;;2088573;28;20092;-69
2021/05/03 02:36:34;;;;;;;11.40;6.38;;;6.20;90.90;;;;;;2089526;28;20090;-69
2021/05/03 02:37:35;;;;;;;8.85;6.75;;;6.20;91.00;;;;;;2089335;28;20025;-69
2021/05/03 02:38:35;;;;;;;12.38;6.82;;;6.20;91.00;;;;;;2089768;28;20038;-69
2021/05/03 02:39:36;;;;;;;11.55;6.53;;;6.20;91.20;;;;;;2089856;28;20473;-69
2021/05/03 02:40:37;;;;;;;10.05;6.43;;;6.10;91.40;;;;;;2089651;28;20046;-68
2021/05/03 02:41:37;;;;;;;10.25;6.35;;;6.10;91.00;;;;;;2089918;28;20031;-69
2021/05/03 02:42:39;;;;;;;13.20;6.22;;;6.10;91.10;;;;;;2089475;28;20071;-69
2021/05/03 02:43:40;;;;;;;11.45;6.47;;;6.10;91.10;;;;;;2080966;28;20374;-69
2021/05/03 02:44:42;;;;;;;12.52;6.90;;;6.10;91.10;;;;;;2081184;28;20036;-69
2021/05/03 02:45:43;;;;;;;9.38;6.68;;;6.10;91.00;;;;;;2089382;28;20025;-69
2021/05/03 02:46:43;;;;;;;8.57;6.45;;;6.20;91.10;;;;;;2087909;28;20437;-70
2021/05/03 02:47:44;;;;;;;10.48;6.43;;;6.20;91.20;;;;;;2087893;28;20044;-69
2021/05/03 02:48:45;;;;;;;9.05;6.20;;;6.20;91.30;;;;;;2088569;28;20053;-69
2021/05/03 02:49:46;;;;;;;10.63;6.78;;;6.20;91.50;;;;;;2088549;28;20028;-69
2021/05/03 02:50:46;;;;;;;10.32;6.78;;;6.20;91.20;;;;;;2088573;28;20020;-69
2021/05/03 02:51:47;;;;;;;8.40;6.72;;;6.20;91.20;;;;;;2088754;28;20033;-69
2021/05/03 02:52:49;;;;;;;7.95;6.10;;;6.10;91.30;;;;;;2088313;28;20507;-69
2021/05/03 02:53:50;;;;;;;8.88;6.20;;;6.20;91.50;;;;;;2079865;28;20025;-69
2021/05/03 02:54:51;;;;;;;9.65;6.68;;;6.20;91.70;;;;;;2079986;28;20049;-70
2021/05/03 02:55:51;;;;;;;8.63;6.68;;;6.20;91.90;;;;;;2088067;28;20096;-69
2021/05/03 02:56:52;;;;;;;9.98;6.40;;;6.10;91.60;;;;;;2088748;28;20449;-69
2021/05/03 02:57:53;;;;;;;8.15;6.53;;;6.10;91.40;;;;;;2085045;28;20051;-70
2021/05/03 02:58:54;;;;;;;9.35;7.03;;;6.10;91.60;;;;;;2088109;28;20051;-69
2021/05/03 02:59:54;;;;;;;10.07;7.03;;;6.10;91.90;;;;;;2088594;28;20025;-69
2021/05/03 03:00:55;;;;;;;9.40;6.78;;;6.10;92.00;;;;;;2088568;28;20507;-69
2021/05/03 03:01:55;;;;;;;9.48;6.72;;;6.10;92.20;;;;;;2088585;28;20028;-69
2021/05/03 03:02:56;;;;;;;9.20;6.90;;;6.10;92.40;;;;;;2088401;28;20495;-69
2021/05/03 03:03:57;;;;;;;12.05;6.65;;;6.10;92.20;;;;;;2088436;28;20064;-69
2021/05/03 03:04:57;;;;;;;10.63;6.95;;;6.10;91.80;;;;;;2087803;28;20159;-69
2021/05/03 03:05:58;;;;;;;11.05;6.53;;;6.10;91.70;;;;;;2087886;28;20075;-69
2021/05/03 03:06:59;;;;;;;11.15;6.85;;;6.10;91.70;;;;;;2088565;28;20028;-69
2021/05/03 03:08:04;;;;;;;9.65;6.43;;;6.10;91.40;;;;;;2088480;28;20043;-70
2021/05/03 03:09:05;;;;;;;9.38;6.38;;;6.10;91.10;;;;;;2088741;28;20062;-69
2021/05/03 03:10:06;;;;;;;8.93;6.40;;;6.00;90.90;;;;;;2088622;28;20029;-71
2021/05/03 03:11:07;;;;;;;8.15;5.75;;;6.00;90.90;;;;;;2088586;28;20035;-69
2021/05/03 03:12:10;;;;;;;9.73;6.10;;;6.00;91.30;;;;;;2088283;28;20580;-69
2021/05/03 03:13:11;;;;;;;11.32;6.57;;;6.00;91.50;;;;;;2088593;28;20435;-69
2021/05/03 03:14:12;;;;;;;8.82;6.43;;;6.00;91.30;;;;;;2082680;28;20155;-69
2021/05/03 03:15:15;;;;;;;9.88;6.53;;;6.00;91.10;;;;;;2087918;28;20025;-68
2021/05/03 03:16:21;;;;;;;11.32;6.35;;;6.00;90.80;;;;;;2092502;28;20025;-69
2021/05/03 03:17:22;;;;;;;8.93;6.20;;;6.00;90.70;;;;;;2087944;28;20024;-68
2021/05/03 03:18:23;;;;;;;11.35;6.38;;;6.00;91.10;;;;;;2087901;28;20112;-69
2021/05/03 03:19:23;;;;;;;11.13;6.50;;;6.00;91.70;;;;;;2087928;28;20051;-69
2021/05/03 03:20:24;;;;;;;7.45;6.00;;;6.00;91.60;;;;;;2088022;28;20076;-69
2021/05/03 03:21:25;;;;;;;11.63;6.57;;;6.00;91.20;;;;;;2087862;28;20107;-69
2021/05/03 03:22:26;;;;;;;8.93;6.45;;;6.00;91.10;;;;;;2088351;28;20025;-69
2021/05/03 03:23:27;;;;;;;8.85;6.25;;;5.90;91.00;;;;;;2088509;28;20408;-69
2021/05/03 03:24:27;;;;;;;8.80;6.30;;;6.00;90.90;;;;;;2088578;28;20107;-69
2021/05/03 03:25:29;;;;;;;9.55;6.57;;;6.00;91.10;;;;;;2088507;28;20447;-69
2021/05/03 03:26:30;;;;;;;9.57;6.50;;;6.00;91.30;;;;;;2088483;28;20087;-70
2021/05/03 03:27:30;;;;;;;10.93;6.30;;;6.00;91.60;;;;;;2088222;28;20033;-69
2021/05/03 03:28:31;;;;;;;10.65;6.40;;;6.00;91.60;;;;;;2086007;28;20388;-69
2021/05/03 03:29:32;;;;;;;8.10;6.13;;;5.90;91.40;;;;;;2088675;28;20120;-69
2021/05/03 03:30:32;;;;;;;11.32;6.60;;;5.90;91.40;;;;;;2088900;28;20025;-69
2021/05/03 03:31:33;;;;;;;8.70;6.30;;;5.90;91.70;;;;;;2088962;28;20021;-69
2021/05/03 03:32:34;;;;;;;12.23;6.70;;;5.90;91.50;;;;;;2088847;28;20040;-70
2021/05/03 03:33:35;;;;;;;11.32;6.50;;;5.90;91.40;;;;;;2089097;28;20692;-69
2021/05/03 03:34:36;;;;;;;8.15;6.30;;;5.80;91.40;;;;;;2089295;28;20104;-69
2021/05/03 03:35:36;;;;;;;10.18;6.90;;;5.80;91.50;;;;;;2089354;28;20575;-69
2021/05/03 03:36:37;;;;;;;9.35;6.38;;;5.80;92.00;;;;;;2089299;28;20476;-69
2021/05/03 03:37:38;;;;;;;10.27;6.82;;;5.80;92.00;;;;;;2091550;28;20055;-69
2021/05/03 03:38:38;;;;;;;9.88;6.78;;;5.80;92.00;;;;;;2090971;28;20031;-70
2021/05/03 03:39:39;;;;;;;10.05;6.53;;;5.80;92.10;;;;;;2090095;28;20021;-69
2021/05/03 03:40:40;;;;;;;9.63;6.50;;;5.70;92.10;;;;;;2089631;28;20029;-69
2021/05/03 03:41:41;;;;;;;9.10;6.53;;;5.70;92.00;;;;;;2090087;28;20079;-70
2021/05/03 03:42:42;;;;;;;10.35;6.72;;;5.70;91.90;;;;;;2089932;28;20067;-69
2021/05/03 03:43:42;;;;;;;9.20;7.07;;;5.70;92.00;;;;;;2090116;28;20132;-69
2021/05/03 03:44:43;;;;;;;11.32;6.82;;;5.70;92.00;;;;;;2090163;28;20060;-71
2021/05/03 03:45:44;;;;;;;10.48;7.50;;;5.70;92.10;;;;;;2090170;28;20035;-69
2021/05/03 03:46:44;;;;;;;10.45;7.10;;;5.70;92.30;;;;;;2090051;28;20451;-71
2021/05/03 03:47:45;;;;;;;13.18;7.32;;;5.70;92.40;;;;;;2090093;28;20033;-70
2021/05/03 03:48:47;;;;;;;9.35;6.82;;;5.70;92.40;;;;;;2089973;28;20072;-70
2021/05/03 03:49:47;;;;;;;13.90;7.88;;;5.70;92.40;;;;;;2089907;28;20017;-73
2021/05/03 03:50:48;;;;;;;10.60;7.50;;;5.70;92.20;;;;;;2089410;28;20467;-70
2021/05/03 03:51:49;;;;;;;10.50;7.47;;;5.70;92.10;;;;;;2089652;28;20500;-70
2021/05/03 03:52:49;;;;;;;11.35;7.95;;;5.70;92.20;;;;;;2089689;28;20040;-71
2021/05/03 03:53:50;;;;;;;9.90;7.32;;;5.80;92.10;;;;;;2090238;28;20602;-67
2021/05/03 03:54:52;;;;;;;11.43;7.50;;;5.80;92.00;;;;;;2090121;28;20028;-69
2021/05/03 03:55:52;;;;;;;10.57;7.68;;;5.80;91.80;;;;;;2089399;28;20047;-68
2021/05/03 03:56:53;;;;;;;9.93;7.40;;;5.80;91.70;;;;;;2089482;28;20021;-68
2021/05/03 03:57:54;;;;;;;12.15;7.65;;;5.80;91.80;;;;;;2087176;28;20048;-68
2021/05/03 03:58:55;;;;;;;14.90;8.50;;;5.80;91.70;;;;;;2090179;28;20029;-68
2021/05/03 03:59:57;;;;;;;11.70;8.13;;;5.80;91.60;;;;;;2090119;28;20480;-69
2021/05/03 04:00:58;;;;;;;11.18;7.65;;;5.80;91.90;;;;;;2090208;28;20029;-69
2021/05/03 04:01:59;;;;;;;10.05;7.65;;;5.90;91.80;;;;;;2089832;28;20518;-69
2021/05/03 04:03:00;;;;;;;8.30;7.15;;;5.90;91.50;;;;;;2089647;28;20041;-69
2021/05/03 04:04:03;;;;;;;12.27;7.93;;;5.90;91.60;;;;;;2089892;28;20412;-69
2021/05/03 04:07:15;;;;;;;11.98;7.90;;;5.90;91.50;;;;;;2089918;28;20045;-71
2021/05/03 04:09:19;;;;;;;9.95;7.72;;;5.90;91.40;;;;;;2089936;28;19954;-69
2021/05/03 04:10:38;;;;;;;9.88;7.10;;;6.00;91.30;;;;;;2089920;28;20511;-69
2021/05/03 04:22:11;;;;;;;13.60;7.80;;;6.10;90.90;;;;;;2089864;28;20045;-69
2021/05/03 04:25:17;;;;;;;11.02;7.18;;;6.60;90.30;;;;;;2094925;28;20033;-70
2021/05/03 04:26:20;;;;;;;11.88;6.70;;;6.90;89.90;;;;;;2089720;28;20027;-69
2021/05/03 04:27:21;;;;;;;10.65;7.22;;;7.20;87.50;;;;;;2089691;28;20028;-69
2021/05/03 04:28:21;;;;;;;11.18;7.00;;;7.50;85.90;;;;;;2086914;28;20088;-69
2021/05/03 04:29:22;;;;;;;9.85;6.95;;;7.80;84.20;;;;;;2089773;28;20025;-70
2021/05/03 04:30:23;;;;;;;10.07;6.75;;;8.00;81.90;;;;;;2089725;28;20028;-69
2021/05/03 04:31:24;;;;;;;8.48;6.20;;;8.10;80.50;;;;;;2089674;28;20412;-70
2021/05/03 04:32:24;;;;;;;8.88;6.32;;;8.30;80.20;;;;;;2089202;28;20147;-69
2021/05/03 04:33:25;;;;;;;8.07;6.30;;;8.60;79.80;;;;;;2088991;28;20628;-69
2021/05/03 04:34:26;;;;;;;7.68;6.07;;;8.80;78.90;;;;;;2089071;28;20754;-67
2021/05/03 04:35:27;;;;;;;8.82;6.05;;;9.00;77.70;;;;;;2089711;28;20013;-69
2021/05/03 04:36:28;;;;;;;9.65;5.95;;;9.20;75.80;;;;;;2089669;28;20454;-69
2021/05/03 04:37:28;;;;;;;9.52;5.93;;;9.30;74.50;;;;;;2089640;28;20033;-69
2021/05/03 04:38:29;;;;;;;9.85;6.00;;;9.40;74.40;;;;;;2089591;28;20075;-69
2021/05/03 04:39:29;;;;;;;9.05;5.80;;;9.40;72.80;;;;;;2089059;28;20013;-68
2021/05/03 04:40:30;;;;;;;8.40;5.50;;;9.40;72.70;;;;;;2089036;28;20025;-68
2021/05/03 04:41:31;;;;;;;10.35;5.72;;;9.60;73.20;;;;;;2089582;28;20024;-67
2021/05/03 04:42:31;;;;;;;6.57;5.38;;;9.70;72.40;;;;;;2089161;28;20049;-68
2021/05/03 04:43:32;;;;;;;6.47;5.63;;;9.80;70.90;;;;;;2089013;28;20055;-69
2021/05/03 04:44:33;;;;;;;9.65;5.65;;;9.80;70.30;;;;;;2089042;28;20536;-69
2021/05/03 04:45:33;;;;;;;8.55;5.78;;;9.80;70.10;;;;;;2089619;28;20048;-69
2021/05/03 04:46:34;;;;;;;9.45;5.75;;;9.90;70.10;;;;;;2089562;28;20025;-69
2021/05/03 04:47:34;;;;;;;8.63;5.70;;;9.80;70.30;;;;;;2089387;28;20033;-69
2021/05/03 04:48:35;;;;;;;8.68;5.68;;;10.00;69.40;;;;;;2088606;28;20025;-69
2021/05/03 04:49:36;;;;;;;9.88;6.25;;;9.90;69.30;;;;;;2089537;28;20104;-69
2021/05/03 04:50:37;;;;;;;8.98;5.43;;;10.00;69.40;;;;;;2089659;28;20115;-69
2021/05/03 04:51:37;;;;;;;7.45;5.93;;;10.20;69.40;;;;;;2089410;28;20400;-69
2021/05/03 04:52:38;;;;;;;7.25;5.40;;;10.30;68.70;;;;;;2089162;28;20029;-69
2021/05/03 04:53:39;;;;;;;6.85;5.05;;;10.50;68.60;;;;;;2089832;28;20534;-71
2021/05/03 04:54:40;;;;;;;7.88;5.30;;;10.80;68.40;;;;;;2088947;28;20028;-69
2021/05/03 04:55:40;;;;;;;10.23;6.05;;;11.10;66.60;;;;;;2088831;28;20053;-69
2021/05/03 04:56:41;;;;;;;7.63;5.50;;;11.10;64.80;;;;;;2088945;28;20111;-69
2021/05/03 04:57:41;;;;;;;8.38;5.38;;;11.10;64.50;;;;;;2086908;28;20025;-68
2021/05/03 04:58:42;;;;;;;11.50;5.57;;;11.10;63.70;;;;;;2088354;28;20032;-68
2021/05/03 04:59:43;;;;;;;7.78;5.35;;;11.10;63.40;;;;;;2089463;28;20020;-72
2021/05/03 05:00:43;;;;;;;9.20;5.68;;;11.00;63.80;;;;;;2089442;28;20074;-72
2021/05/03 05:01:44;;;;;;;7.28;5.03;;;10.90;63.70;;;;;;2089486;28;20533;-71
2021/05/03 05:02:45;;;;;;;6.88;4.95;;;10.90;64.70;;;;;;2089376;28;20075;-73
2021/05/03 05:03:45;;;;;;;7.97;5.30;;;11.00;65.10;;;;;;2089637;28;20582;-74
2021/05/03 05:04:46;;;;;;;8.93;5.38;;;11.10;64.70;;;;;;2089901;28;20082;-73
2021/05/03 05:05:50;;;;;;;8.60;5.78;;;10.90;63.80;;;;;;2090113;28;20123;-76
2021/05/03 05:06:52;;;;;;;8.95;5.50;;;10.80;64.40;;;;;;2097388;28;20100;-72
2021/05/03 05:07:52;;;;;;;6.00;5.13;;;10.90;65.40;;;;;;2089003;28;20096;-70
2021/05/03 05:08:53;;;;;;;6.45;4.75;;;11.10;64.50;;;;;;2089310;28;20396;-70
2021/05/03 05:09:55;;;;;;;7.47;5.30;;;11.30;63.40;;;;;;2088842;28;20108;-69
2021/05/03 05:10:56;;;;;;;8.55;5.60;;;11.40;61.40;;;;;;2088755;28;20087;-73
2021/05/03 05:11:56;;;;;;;7.78;5.20;;;11.00;62.20;;;;;;2089477;28;20055;-71
2021/05/03 05:12:57;;;;;;;8.18;5.22;;;11.10;63.60;;;;;;2089224;28;20026;-69
2021/05/03 05:13:58;;;;;;;6.95;5.25;;;11.30;62.70;;;;;;2087495;28;20036;-70
2021/05/03 05:14:58;;;;;;;7.75;5.30;;;11.20;62.90;;;;;;2088719;28;20017;-70
2021/05/03 05:15:59;;;;;;;8.52;5.15;;;11.20;63.00;;;;;;2089414;28;20410;-72
2021/05/03 05:16:59;;;;;;;9.18;5.10;;;11.10;62.20;;;;;;2089473;28;20061;-74
2021/05/03 05:18:08;;;;;;;7.57;5.00;;;11.10;63.40;;;;;;2089498;28;20115;-74
2021/05/03 05:19:09;;;;;;;8.98;6.10;;;10.90;64.40;;;;;;2090021;28;20484;-77
2021/05/03 05:20:10;;;;;;;8.27;5.43;;;10.80;65.30;;;;;;2088908;28;20029;-74
2021/05/03 05:21:11;;;;;;;7.03;5.00;;;10.50;66.30;;;;;;2088562;28;20509;-73
2021/05/03 05:22:12;;;;;;;7.38;5.35;;;10.20;66.70;;;;;;2089232;28;20021;-74
2021/05/03 05:23:12;;;;;;;8.48;5.20;;;10.00;68.40;;;;;;2090286;28;20053;-74
2021/05/03 05:24:13;;;;;;;7.57;5.38;;;9.90;68.30;;;;;;2089917;28;20032;-76
2021/05/03 05:25:14;;;;;;;7.82;5.55;;;9.80;69.20;;;;;;2088765;28;20484;-74
2021/05/03 05:26:15;;;;;;;9.07;5.82;;;9.60;70.40;;;;;;2083913;28;20491;-73
2021/05/03 05:27:15;;;;;;;13.27;5.72;;;9.40;71.00;;;;;;2093377;28;20024;-72
2021/05/03 05:28:16;;;;;;;8.27;5.43;;;9.20;72.50;;;;;;2085862;28;20531;-74
2021/05/03 05:29:17;;;;;;;5.93;5.18;;;9.00;71.80;;;;;;2088663;28;20013;-71
2021/05/03 05:30:18;;;;;;;8.90;5.78;;;8.70;71.80;;;;;;2088753;28;20120;-73
2021/05/03 05:31:18;;;;;;;9.00;5.85;;;8.50;74.00;;;;;;2089106;28;20021;-71
2021/05/03 05:32:19;;;;;;;8.13;5.97;;;8.40;76.10;;;;;;2088856;28;20102;-73
2021/05/03 05:33:19;;;;;;;8.52;5.80;;;8.30;76.50;;;;;;2088508;28;20090;-71
2021/05/03 05:34:20;;;;;;;10.48;5.90;;;8.10;76.30;;;;;;2088591;28;20052;-74
2021/05/03 05:35:21;;;;;;;10.75;5.90;;;8.10;76.70;;;;;;2089109;28;20025;-73
2021/05/03 05:36:22;;;;;;;8.23;5.85;;;8.10;78.10;;;;;;2089071;28;20056;-73